Noorvik, AK

2:40 AM AKDT on July 03, 2015 (GMT -0800)
Baker Memorial | | Change Station
CLOSE
Current Station
Airport
Location: Kiana,
Elevation: 151 ft
Nearby Weather Stations

Elev 151 ft 66.98 °N, 160.44 °W | Updated 39 minutes ago

Mostly Cloudy
Mostly Cloudy
49 °F
Feels Like 49 °F
N
0
Wind Variable Wind from North

Today
High -- | Low -- °F
--% Chance of Precip.
Yesterday
High -- | Low -- °F
Precip. -- in
3:16 AM 2:11 AM
Full, 98% visible
Pressure 30.17 in
Visibility 10.0 miles
Clouds Scattered Clouds 6000 ft
Mostly Cloudy 9000 ft
Dew Point 45 °F
Humidity 86%
Rainfall 0.00 in
Snow Depth Not available.
UV 0 out of 12
Pollen Not available.
Air Quality Not available.
Flu Activity Not available.
METAR PAIK 031001Z AUTO 00000KT 10SM SCT060 BKN090 09/07 A3004 RMK AO2 SLP215 T00940072 PNO $

More Conditions Fewer Conditions

Pressure 30.17 in
Visibility 10.0 miles
Clouds Scattered Clouds 6000 ft
Mostly Cloudy 9000 ft
Dew Point 45 °F
Humidity 86%
Rainfall 0.00 in
Snow Depth Not available.
UV 0 out of 12
Pollen Not available.
Air Quality Not available.
Flu Activity Not available.
METAR PAIK 031001Z AUTO 00000KT 10SM SCT060 BKN090 09/07 A3004 RMK AO2 SLP215 T00940072 PNO $

More Conditions Fewer Conditions

10-Day Weather Forecast

×

Almanac

Astronomy

Jul. 03, 2015 Rise Set
Actual Time
Civil Twilight
Nautical Twilight
Astronomical Twilight
Moon
Length of Visible Light
Length of Day
Tomorrow will be .
, % of the Moon is Illuminated

Today's Extremes

State Highs State Lows

Community

WunderPhotos

Upload Photos

1,834,648 photos uploaded!

WunderBlogs® & News

Nearby

Air Quality

  Air Quality AQ Index Pollutant
Not available.

Snow Depth

Station Depth Elevation

Earthquake Activity

City Distance Mag. Time & Date
Minimum magnitude displayed is 2.5.

Coastal Water Temperatures

Place Temperature

Stations

Nearby Weather Stations

Station Location Temp. Windchill Dew Point Humidity Wind Precip. Elev Updated Type